Strona główna
METAR-TAF:

METAR-TAF

Lotnisko :

Port lotniczy Koror

Koror, Babeldaob, Palau

Szerokość geograficzna: 07-22N, Długość geograficzna: 134-32E, wysokość: 54 m

Aktualna obserwacja pogody

Raport powstał 47 minut temu, godzina 11:50 UTC
Cisza
Temperatura 27°C
Wilgotność 89%
Ciśnienie 1009 hPa
Widzialność: 24.1 km
Rozproszone chmury na wysokości 1600 ft
Przerywane chmury na wysokości 12000 ft
Zachmurzenie całkowite na wysokości 30000 ft

METAR: PTRO 181150Z 00000KT 15SM SCT016 BKN120 OVC300 27/25 A2981

czas: 21:37 (12:37 UTC)

Prognoza

Raport powstał 1 godzina i 3 minut temu, godzina 11:34 UTC
Prognoza ważna od 18 godzina 12 UTC do 19 godzina 12 UTC
Wiatr 7 kt od południowo-południowy zachód
Widzialność: 10 km
Rozproszone chmury na wysokości 1600 ft
Przerywane chmury na wysokości 12000 ft

TAF: PTRO 181134Z 1812/1912 21007KT P6SM SCT016 BKN120

Obserwacja i prognoza pogody dla ponad 4000 lotnisk (raport METAR i TAF).

Dostępne stacje oznaczono żółtymi i czerwonymi punktami na mapie.

Najedź kursorem aby zobaczyć nazwę stacji.

Kliknij aby zobaczyć obserwacje i prognozy pogody.

Aby zmienić mapę: kliknij na zielony przycisk z czarnym krzyżykiem, aby powiększyć; na zielony przycisk z myślnikiem, aby pomniejszyć; na zielone strzałki, aby przejść do map sąsiednich.


METAR-TAF: